createdAt,value
2022-09-25T00:01:11.779Z,97210.72
2022-09-25T00:03:41.638Z,97213.41
2022-09-25T00:06:13.410Z,97209.22
2022-09-25T00:08:41.834Z,97202.25
2022-09-25T00:11:12.783Z,97212.94
2022-09-25T00:13:44.483Z,97217.03
2022-09-25T00:16:16.968Z,97208.16
2022-09-25T00:19:02.823Z,97200.91
2022-09-25T00:21:32.919Z,97201.75
2022-09-25T00:24:03.569Z,97202.97
2022-09-25T00:26:34.736Z,97209.75
2022-09-25T00:29:06.321Z,97206.44
2022-09-25T00:31:35.115Z,97202.78
2022-09-25T00:34:06.474Z,97199.25
2022-09-25T00:36:35.580Z,97204.41
2022-09-25T00:39:03.875Z,97206.25
2022-09-25T00:41:33.064Z,97197.22
2022-09-25T00:44:05.212Z,97192.69
2022-09-25T00:46:38.251Z,97191.06
2022-09-25T00:49:14.305Z,97189.41
2022-09-25T00:51:49.857Z,97191.25
2022-09-25T00:54:24.931Z,97182.38
2022-09-25T00:56:56.071Z,97183.88
2022-09-25T00:59:31.126Z,97184.69
2022-09-25T01:02:00.173Z,97184.50
2022-09-25T01:04:33.784Z,97181.19
2022-09-25T01:07:03.059Z,97178.31
2022-09-25T01:09:32.152Z,97167.84
2022-09-25T01:12:00.386Z,97161.84
2022-09-25T01:14:30.460Z,97163.28
2022-09-25T01:17:06.251Z,97162.28
2022-09-25T01:19:52.947Z,97158.13
2022-09-25T01:22:32.275Z,97158.97
2022-09-25T01:25:13.148Z,97156.22
2022-09-25T01:28:02.733Z,97157.25
2022-09-25T01:30:39.499Z,97160.13
2022-09-25T01:33:15.992Z,97146.97
2022-09-25T01:35:50.663Z,97147.97
2022-09-25T01:38:27.520Z,97159.47
2022-09-25T01:41:03.656Z,97156.00
2022-09-25T01:43:36.659Z,97154.13
2022-09-25T01:46:15.112Z,97158.66
2022-09-25T01:48:46.419Z,97157.66
2022-09-25T01:51:20.081Z,97158.47
2022-09-25T01:53:53.688Z,97153.94
2022-09-25T01:56:33.082Z,97160.97
2022-09-25T01:59:07.632Z,97151.09
2022-09-25T02:01:42.253Z,97144.75
2022-09-25T02:04:16.768Z,97150.09
2022-09-25T02:06:48.923Z,97150.69
2022-09-25T02:09:23.723Z,97155.03
2022-09-25T02:12:02.029Z,97148.88
2022-09-25T02:14:35.361Z,97157.72
2022-09-25T02:17:10.343Z,97153.00
2022-09-25T02:19:56.103Z,97148.28
2022-09-25T02:22:30.047Z,97150.31
2022-09-25T02:25:05.781Z,97151.81
2022-09-25T02:27:34.163Z,97150.13
2022-09-25T02:30:02.619Z,97141.72
2022-09-25T02:32:34.018Z,97147.91
2022-09-25T02:35:02.431Z,97145.03
2022-09-25T02:37:31.830Z,97144.59
2022-09-25T02:40:03.294Z,97157.38
2022-09-25T02:42:41.512Z,97149.56
2022-09-25T02:45:22.983Z,97153.88
2022-09-25T02:48:04.662Z,97154.50
2022-09-25T02:50:43.698Z,97156.16
2022-09-25T02:53:19.735Z,97159.84
2022-09-25T02:55:54.716Z,97151.66
2022-09-25T02:58:30.556Z,97153.28
2022-09-25T03:01:01.787Z,97153.28
2022-09-25T03:03:33.657Z,97149.63
2022-09-25T03:06:04.141Z,97150.44
2022-09-25T03:08:39.680Z,97158.44
2022-09-25T03:11:10.524Z,97151.25
2022-09-25T03:13:38.856Z,97150.44
2022-09-25T03:16:12.139Z,97147.75
2022-09-25T03:18:42.110Z,97150.44
2022-09-25T03:21:10.431Z,97143.63
2022-09-25T03:23:38.775Z,97153.94
2022-09-25T03:26:07.658Z,97148.41
2022-09-25T03:28:36.339Z,97151.06
2022-09-25T03:31:08.044Z,97153.75
2022-09-25T03:33:38.758Z,97148.41
2022-09-25T03:36:12.963Z,97145.72
2022-09-25T03:38:42.458Z,97143.06
2022-09-25T03:41:15.635Z,97132.75
2022-09-25T03:43:45.371Z,97133.59
2022-09-25T03:46:15.676Z,97132.75
2022-09-25T03:48:44.086Z,97123.88
2022-09-25T03:51:14.602Z,97110.91
2022-09-25T03:53:43.101Z,97102.28
2022-09-25T03:56:14.433Z,97113.78
2022-09-25T03:58:42.923Z,97104.94
2022-09-25T04:01:11.634Z,97108.44
2022-09-25T04:03:40.557Z,97109.47
2022-09-25T04:06:10.063Z,97114.81
2022-09-25T04:08:39.602Z,97109.47
2022-09-25T04:11:07.998Z,97118.31
2022-09-25T04:13:37.671Z,97108.44
2022-09-25T04:16:08.279Z,97109.25
2022-09-25T04:18:37.023Z,97105.56
2022-09-25T04:21:08.584Z,97111.75
2022-09-25T04:23:39.480Z,97111.94
2022-09-25T04:26:09.174Z,97111.94
2022-09-25T04:28:37.887Z,97111.94
2022-09-25T04:31:06.610Z,97117.28
2022-09-25T04:33:49.040Z,97121.78
2022-09-25T04:36:18.943Z,97126.34
2022-09-25T04:38:49.332Z,97111.28
2022-09-25T04:41:20.124Z,97114.81
2022-09-25T04:43:49.003Z,97116.44
2022-09-25T04:46:22.485Z,97115.44
2022-09-25T04:48:51.203Z,97114.63
2022-09-25T04:51:19.904Z,97111.75
2022-09-25T04:53:49.469Z,97111.75
2022-09-25T04:56:17.705Z,97111.94
2022-09-25T04:58:47.565Z,97103.09
2022-09-25T05:01:17.771Z,97105.75
2022-09-25T05:03:50.040Z,97105.94
2022-09-25T05:06:18.460Z,97117.47
2022-09-25T05:08:50.572Z,97121.19
2022-09-25T05:11:19.038Z,97117.47
2022-09-25T05:13:51.486Z,97125.50
2022-09-25T05:16:20.333Z,97117.47
2022-09-25T05:18:48.888Z,97116.63
2022-09-25T05:21:17.162Z,97126.53
2022-09-25T05:23:45.375Z,97116.63
2022-09-25T05:26:15.160Z,97120.16
2022-09-25T05:28:43.433Z,97123.84
2022-09-25T05:31:12.087Z,97110.50
2022-09-25T05:33:41.093Z,97115.84
2022-09-25T05:36:09.902Z,97110.50
2022-09-25T05:38:40.379Z,97112.50
2022-09-25T05:41:10.646Z,97115.00
2022-09-25T05:43:43.311Z,97131.03
2022-09-25T05:46:12.858Z,97133.72
2022-09-25T05:48:41.680Z,97131.03
2022-09-25T05:51:10.920Z,97131.88
2022-09-25T05:53:39.290Z,97129.19
2022-09-25T05:56:07.781Z,97133.91
2022-09-25T05:58:36.761Z,97134.34
2022-09-25T06:01:08.003Z,97136.00
2022-09-25T06:03:36.381Z,97138.47
2022-09-25T06:06:05.253Z,97147.94
2022-09-25T06:08:35.527Z,97143.44
2022-09-25T06:11:05.121Z,97146.94
2022-09-25T06:13:35.217Z,97144.88
2022-09-25T06:16:06.442Z,97141.41
2022-09-25T06:18:34.867Z,97144.88
2022-09-25T06:21:06.831Z,97142.41
2022-09-25T06:23:35.103Z,97132.75
2022-09-25T06:26:04.239Z,97138.47
2022-09-25T06:28:32.729Z,97137.03
2022-09-25T06:31:02.160Z,97135.53
2022-09-25T06:33:32.945Z,97132.63
2022-09-25T06:36:01.767Z,97132.63
2022-09-25T06:38:32.779Z,97127.28
2022-09-25T06:41:01.770Z,97131.81
2022-09-25T06:43:31.205Z,97125.47
2022-09-25T06:46:03.542Z,97131.59
2022-09-25T06:48:33.539Z,97126.91
2022-09-25T06:51:02.586Z,97123.22
2022-09-25T06:53:31.203Z,97124.84
2022-09-25T06:56:00.827Z,97115.84
2022-09-25T06:58:30.797Z,97120.16
2022-09-25T07:00:59.492Z,97119.97
2022-09-25T07:03:46.108Z,97127.78
2022-09-25T07:06:18.704Z,97128.16
2022-09-25T07:08:48.120Z,97116.91
2022-09-25T07:11:18.561Z,97124.91
2022-09-25T07:13:47.117Z,97117.94
2022-09-25T07:16:18.128Z,97123.28
2022-09-25T07:18:47.659Z,97119.97
2022-09-25T07:21:19.004Z,97127.78
2022-09-25T07:23:49.863Z,97118.50
2022-09-25T07:26:21.786Z,97124.03
2022-09-25T07:28:55.900Z,97125.88
2022-09-25T07:31:26.625Z,97120.53
2022-09-25T07:33:55.109Z,97119.50
2022-09-25T07:36:24.759Z,97129.81
2022-09-25T07:38:54.409Z,97123.84
2022-09-25T07:41:24.358Z,97132.47
2022-09-25T07:44:06.281Z,97130.47
2022-09-25T07:46:43.317Z,97137.25
2022-09-25T07:49:11.613Z,97132.56
2022-09-25T07:51:41.269Z,97125.97
2022-09-25T07:54:10.061Z,97135.28
2022-09-25T07:56:39.098Z,97130.38
2022-09-25T07:59:07.464Z,97123.63
2022-09-25T08:01:39.718Z,97133.75
2022-09-25T08:04:10.984Z,97123.47
2022-09-25T08:06:40.591Z,97117.72
2022-09-25T08:09:10.854Z,97126.19
2022-09-25T08:11:39.381Z,97124.16
2022-09-25T08:14:07.718Z,97128.94
2022-09-25T08:16:36.011Z,97123.16
2022-09-25T08:19:05.055Z,97119.28
2022-09-25T08:21:33.425Z,97117.88
2022-09-25T08:24:03.734Z,97121.78
2022-09-25T08:26:32.046Z,97122.28
2022-09-25T08:29:00.457Z,97125.59
2022-09-25T08:31:28.812Z,97130.75
2022-09-25T08:34:09.720Z,97121.88
2022-09-25T08:36:45.742Z,97125.19
2022-09-25T08:39:15.363Z,97120.03
2022-09-25T08:41:49.333Z,97119.84
2022-09-25T08:44:28.383Z,97118.63
2022-09-25T08:47:20.442Z,97119.84
2022-09-25T08:50:01.311Z,97115.78
2022-09-25T08:52:31.076Z,97112.53
2022-09-25T08:55:01.497Z,97111.72
2022-09-25T08:57:37.199Z,97114.41
2022-09-25T09:00:11.428Z,97115.66
2022-09-25T09:02:43.883Z,97104.34
2022-09-25T09:05:22.010Z,97109.94
2022-09-25T09:07:56.678Z,97112.22
2022-09-25T09:10:35.708Z,97111.63
2022-09-25T09:13:15.784Z,97117.41
2022-09-25T09:15:50.598Z,97113.31
2022-09-25T09:18:24.407Z,97119.91
2022-09-25T09:20:55.037Z,97103.63
2022-09-25T09:23:26.620Z,97107.78
2022-09-25T09:26:07.690Z,97109.63
2022-09-25T09:29:13.934Z,97105.09
2022-09-25T09:31:56.747Z,97102.22
2022-09-25T09:35:07.072Z,97104.06
2022-09-25T09:37:51.727Z,97095.84
2022-09-25T09:40:47.318Z,97097.47
2022-09-25T09:43:36.859Z,97101.41
2022-09-25T09:46:15.670Z,97108.81
2022-09-25T09:49:06.795Z,97105.38
2022-09-25T09:51:41.364Z,97114.47
2022-09-25T09:54:16.252Z,97111.38
2022-09-25T09:56:49.751Z,97102.53
2022-09-25T09:59:23.756Z,97098.63
2022-09-25T10:02:02.387Z,97096.34
2022-09-25T10:04:37.379Z,97095.34
2022-09-25T10:07:09.814Z,97094.09
2022-09-25T10:09:38.477Z,97095.75
2022-09-25T10:12:14.757Z,97091.63
2022-09-25T10:14:47.714Z,97095.34
2022-09-25T10:17:17.083Z,97095.53
2022-09-25T10:19:51.704Z,97090.81
2022-09-25T10:22:23.364Z,97091.22
2022-09-25T10:24:58.282Z,97091.81
2022-09-25T10:27:33.329Z,97087.09
2022-09-25T10:30:22.432Z,97081.72
2022-09-25T10:32:59.805Z,97084.88
2022-09-25T10:35:31.331Z,97087.34
2022-09-25T10:38:02.448Z,97086.69
2022-09-25T10:40:35.607Z,97080.09
2022-09-25T10:43:18.197Z,97092.25
2022-09-25T10:45:49.727Z,97081.09
2022-09-25T10:48:52.411Z,97087.50
2022-09-25T10:51:22.200Z,97089.97
2022-09-25T10:53:52.916Z,97084.59
2022-09-25T10:56:27.104Z,97081.91
2022-09-25T10:58:57.878Z,97084.19
2022-09-25T11:01:36.409Z,97086.84
2022-09-25T11:04:13.005Z,97088.50
2022-09-25T11:06:47.296Z,97085.97
2022-09-25T11:09:19.757Z,97087.63
2022-09-25T11:11:50.563Z,97083.66
2022-09-25T11:14:23.569Z,97074.13
2022-09-25T11:16:58.019Z,97068.75
2022-09-25T11:19:30.032Z,97072.47
2022-09-25T11:22:12.623Z,97062.75
2022-09-25T11:25:01.291Z,97068.28
2022-09-25T11:27:37.323Z,97058.56
2022-09-25T11:30:10.204Z,97061.19
2022-09-25T11:32:52.246Z,97061.59
2022-09-25T11:35:36.521Z,97062.81
2022-09-25T11:38:18.109Z,97065.50
2022-09-25T11:41:16.554Z,97062.81
2022-09-25T11:43:58.356Z,97062.19
2022-09-25T11:46:50.319Z,97063.03
2022-09-25T11:49:24.459Z,97060.34
2022-09-25T11:52:32.595Z,97061.16
2022-09-25T11:55:46.725Z,97058.47
2022-09-25T11:58:43.419Z,97059.72
2022-09-25T12:01:27.794Z,97052.50
2022-09-25T12:04:45.934Z,97055.78
2022-09-25T12:07:44.805Z,97049.38
2022-09-25T12:10:27.249Z,97049.38
2022-09-25T12:13:05.129Z,97047.09
2022-09-25T12:16:00.393Z,97047.69
2022-09-25T12:18:50.198Z,97047.25
2022-09-25T12:21:25.608Z,97045.16
2022-09-25T12:24:00.940Z,97038.53
2022-09-25T12:26:37.655Z,97033.13
2022-09-25T12:29:20.987Z,97031.06
2022-09-25T12:31:59.006Z,97021.50
2022-09-25T12:34:50.661Z,97024.59
2022-09-25T12:37:31.993Z,97022.88
2022-09-25T12:40:03.652Z,97016.59
2022-09-25T12:42:43.594Z,97016.50
2022-09-25T12:45:20.809Z,97010.81
2022-09-25T12:48:10.415Z,97008.47
2022-09-25T12:50:46.096Z,97004.84
2022-09-25T12:53:27.154Z,96996.72
2022-09-25T12:56:03.974Z,97000.16
2022-09-25T12:58:48.303Z,96991.44
2022-09-25T13:01:25.665Z,96989.72
2022-09-25T13:04:11.954Z,96986.59
2022-09-25T13:06:49.939Z,96978.88
2022-09-25T13:09:30.275Z,96985.09
2022-09-25T13:12:03.871Z,96984.22
2022-09-25T13:14:39.842Z,96975.25
2022-09-25T13:17:10.862Z,96973.28
2022-09-25T13:19:39.423Z,96973.56
2022-09-25T13:22:10.275Z,96973.88
2022-09-25T13:24:45.221Z,96972.72
2022-09-25T13:27:22.330Z,96976.38
2022-09-25T13:29:59.653Z,96977.19
2022-09-25T13:32:34.788Z,96966.44
2022-09-25T13:35:07.066Z,96967.22
2022-09-25T13:37:38.663Z,96958.34
2022-09-25T13:40:36.029Z,96962.66
2022-09-25T13:43:22.445Z,96958.34
2022-09-25T13:46:24.911Z,96954.81
2022-09-25T13:48:55.492Z,96943.22
2022-09-25T13:51:38.736Z,96953.41
2022-09-25T13:54:28.329Z,96949.66
2022-09-25T13:56:58.096Z,96949.66
2022-09-25T13:59:39.479Z,96948.59
2022-09-25T14:02:44.097Z,96945.09
2022-09-25T14:05:18.627Z,96941.34
2022-09-25T14:07:50.841Z,96949.44
2022-09-25T14:10:20.306Z,96954.81
2022-09-25T14:12:53.003Z,96946.13
2022-09-25T14:15:35.490Z,96944.50
2022-09-25T14:18:08.362Z,96944.03
2022-09-25T14:20:43.915Z,96934.09
2022-09-25T14:23:26.233Z,96934.44
2022-09-25T14:25:59.563Z,96936.66
2022-09-25T14:28:31.264Z,96942.66
2022-09-25T14:31:23.669Z,96948.06
2022-09-25T14:34:33.363Z,96949.09
2022-09-25T14:37:19.511Z,96949.09
2022-09-25T14:39:58.951Z,96947.44
2022-09-25T14:43:14.293Z,96943.13
2022-09-25T14:46:06.506Z,96941.72
2022-09-25T14:48:41.186Z,96943.59
2022-09-25T14:51:14.916Z,96939.03
2022-09-25T14:53:48.843Z,96939.47
2022-09-25T14:56:17.277Z,96937.00
2022-09-25T14:58:49.576Z,96933.94
2022-09-25T15:01:28.143Z,96932.53
2022-09-25T15:04:01.189Z,96925.16
2022-09-25T15:06:31.683Z,96928.53
2022-09-25T15:09:02.820Z,96921.13
2022-09-25T15:11:42.715Z,96922.03
2022-09-25T15:14:12.539Z,96924.81
2022-09-25T15:17:02.704Z,96929.47
2022-09-25T15:19:34.891Z,96927.28
2022-09-25T15:22:03.277Z,96924.44
2022-09-25T15:24:35.666Z,96933.66
2022-09-25T15:27:06.961Z,96931.25
2022-09-25T15:29:38.915Z,96941.63
2022-09-25T15:32:17.259Z,96930.13
2022-09-25T15:34:45.703Z,96931.84
2022-09-25T15:37:26.304Z,96924.44
2022-09-25T15:39:55.316Z,96920.81
2022-09-25T15:42:24.035Z,96925.78
2022-09-25T15:44:52.593Z,96923.31
2022-09-25T15:47:54.356Z,96934.13
2022-09-25T15:50:26.892Z,96941.63
2022-09-25T15:52:58.429Z,96939.97
2022-09-25T15:55:27.469Z,96941.25
2022-09-25T15:58:04.563Z,96942.50
2022-09-25T16:01:05.125Z,96932.66
2022-09-25T16:03:52.288Z,96937.41
2022-09-25T16:06:20.566Z,96940.94
2022-09-25T16:08:48.831Z,96933.09
2022-09-25T16:11:22.618Z,96944.28
2022-09-25T16:13:53.308Z,96944.97
2022-09-25T16:16:29.431Z,96939.81
2022-09-25T16:19:01.331Z,96945.63
2022-09-25T16:21:33.052Z,96949.34
2022-09-25T16:24:03.954Z,96941.50
2022-09-25T16:26:40.662Z,96947.31
2022-09-25T16:29:21.088Z,96934.31
2022-09-25T16:31:53.522Z,96933.72
2022-09-25T16:34:28.739Z,96942.22
2022-09-25T16:37:00.034Z,96940.78
2022-09-25T16:39:32.019Z,96938.75
2022-09-25T16:42:00.902Z,96945.78
2022-09-25T16:44:46.989Z,96943.75
2022-09-25T16:47:20.158Z,96939.63
2022-09-25T16:49:50.357Z,96952.44
2022-09-25T16:52:23.771Z,96945.03
2022-09-25T16:54:56.954Z,96935.56
2022-09-25T16:57:29.263Z,96938.69
2022-09-25T16:59:57.786Z,96938.53
2022-09-25T17:02:36.034Z,96937.53
2022-09-25T17:05:17.546Z,96945.22
2022-09-25T17:07:48.054Z,96942.31
2022-09-25T17:10:19.015Z,96955.53
2022-09-25T17:12:53.484Z,96946.50
2022-09-25T17:15:25.141Z,96948.41
2022-09-25T17:17:55.358Z,96950.91
2022-09-25T17:20:27.497Z,96951.75
2022-09-25T17:22:56.246Z,96938.38
2022-09-25T17:25:38.238Z,96945.63
2022-09-25T17:28:08.999Z,96937.66
2022-09-25T17:30:38.608Z,96946.75
2022-09-25T17:33:07.748Z,96946.97
2022-09-25T17:35:42.948Z,96948.66
2022-09-25T17:38:12.367Z,96951.34
2022-09-25T17:40:43.644Z,96949.47
2022-09-25T17:43:14.041Z,96958.34
2022-09-25T17:45:48.390Z,96956.72
2022-09-25T17:48:16.828Z,96950.56
2022-09-25T17:50:47.687Z,96948.09
2022-09-25T17:53:19.720Z,96951.59
2022-09-25T17:55:53.665Z,96955.16
2022-09-25T17:58:24.053Z,96957.81
2022-09-25T18:00:53.412Z,96961.13
2022-09-25T18:03:22.677Z,96963.59
2022-09-25T18:05:52.918Z,96970.59
2022-09-25T18:08:21.418Z,96969.59
2022-09-25T18:10:53.422Z,96977.59
2022-09-25T18:13:21.835Z,96973.69
2022-09-25T18:15:53.115Z,96975.91
2022-09-25T18:18:21.874Z,96980.88
2022-09-25T18:21:09.742Z,96979.03
2022-09-25T18:23:39.080Z,96977.16
2022-09-25T18:26:09.428Z,96981.44
2022-09-25T18:28:37.748Z,96974.03
2022-09-25T18:31:06.414Z,96987.81
2022-09-25T18:33:34.712Z,96984.13
2022-09-25T18:36:04.577Z,96988.63
2022-09-25T18:38:32.871Z,96989.66
2022-09-25T18:41:03.429Z,96991.28
2022-09-25T18:43:32.035Z,96986.75
2022-09-25T18:46:01.299Z,96989.38
2022-09-25T18:48:29.841Z,96997.81
2022-09-25T18:50:58.166Z,97004.59
2022-09-25T18:53:27.886Z,97001.47
2022-09-25T18:55:58.264Z,96995.69
2022-09-25T18:58:26.702Z,97006.75
2022-09-25T19:00:56.220Z,96996.47
2022-09-25T19:03:24.544Z,97000.38
2022-09-25T19:06:01.364Z,97000.97
2022-09-25T19:08:31.365Z,97001.34
2022-09-25T19:11:00.495Z,97007.09
2022-09-25T19:13:29.628Z,97001.94
2022-09-25T19:15:58.968Z,97005.03
2022-09-25T19:18:27.399Z,97005.41
2022-09-25T19:20:55.902Z,97005.00
2022-09-25T19:23:26.481Z,97001.69
2022-09-25T19:25:59.197Z,97002.91
2022-09-25T19:28:28.187Z,97005.78
2022-09-25T19:31:01.206Z,97003.50
2022-09-25T19:33:31.892Z,97014.22
2022-09-25T19:36:00.783Z,97007.38
2022-09-25T19:38:32.699Z,97012.94
2022-09-25T19:41:03.119Z,97015.78
2022-09-25T19:43:36.148Z,97015.19
2022-09-25T19:46:04.566Z,97014.53
2022-09-25T19:48:34.067Z,97019.88
2022-09-25T19:51:07.496Z,97019.44
2022-09-25T19:53:36.639Z,97028.94
2022-09-25T19:56:07.135Z,97029.94
2022-09-25T19:58:38.289Z,97029.13
2022-09-25T20:01:12.629Z,97028.50
2022-09-25T20:03:41.193Z,97035.69
2022-09-25T20:06:10.860Z,97034.03
2022-09-25T20:08:40.117Z,97027.06
2022-09-25T20:11:18.915Z,97029.06
2022-09-25T20:13:49.022Z,97028.25
2022-09-25T20:16:20.981Z,97032.78
2022-09-25T20:18:50.845Z,97017.56
2022-09-25T20:21:21.398Z,97020.22
2022-09-25T20:23:52.189Z,97022.09
2022-09-25T20:26:23.711Z,97016.94
2022-09-25T20:28:55.595Z,97012.41
2022-09-25T20:31:24.218Z,97005.22
2022-09-25T20:33:53.141Z,97011.59
2022-09-25T20:36:21.726Z,97011.78
2022-09-25T20:38:51.258Z,96997.78
2022-09-25T20:41:22.084Z,97015.28
2022-09-25T20:43:52.170Z,97010.97
2022-09-25T20:46:24.023Z,97016.09
2022-09-25T20:48:54.512Z,97015.06
2022-09-25T20:51:29.794Z,97003.56
2022-09-25T20:54:01.347Z,97009.72
2022-09-25T20:56:32.803Z,97015.91
2022-09-25T20:59:02.620Z,97021.25
2022-09-25T21:01:34.539Z,97010.75
2022-09-25T21:04:05.078Z,97013.25
2022-09-25T21:06:37.353Z,97015.06
2022-09-25T21:09:08.383Z,97015.28
2022-09-25T21:11:40.410Z,97020.63
2022-09-25T21:14:12.776Z,97015.28
2022-09-25T21:16:41.140Z,97024.13
2022-09-25T21:19:15.162Z,97027.81
2022-09-25T21:21:44.424Z,97023.28
2022-09-25T21:24:16.372Z,97023.28
2022-09-25T21:26:46.941Z,97019.63
2022-09-25T21:29:17.282Z,97020.22
2022-09-25T21:31:49.880Z,97013.44
2022-09-25T21:34:18.691Z,97005.22
2022-09-25T21:36:47.597Z,96999.69
2022-09-25T21:39:16.091Z,97001.50
2022-09-25T21:41:45.951Z,97000.72
2022-09-25T21:44:19.193Z,96999.88
2022-09-25T21:46:47.623Z,96996.38
2022-09-25T21:49:19.019Z,96992.88
2022-09-25T21:51:48.315Z,96997.41
2022-09-25T21:54:17.717Z,96991.22
2022-09-25T21:56:48.654Z,96991.44
2022-09-25T21:59:17.248Z,96991.22
2022-09-25T22:01:45.804Z,96986.28
2022-09-25T22:04:15.799Z,96981.94
2022-09-25T22:06:46.251Z,96982.16
2022-09-25T22:09:17.393Z,96979.66
2022-09-25T22:11:47.895Z,96986.03
2022-09-25T22:14:17.163Z,96987.06
2022-09-25T22:16:47.543Z,96991.78
2022-09-25T22:19:18.604Z,96995.66
2022-09-25T22:21:49.916Z,96988.66
2022-09-25T22:24:18.904Z,96993.19
2022-09-25T22:26:51.608Z,96984.53
2022-09-25T22:29:21.207Z,96984.94
2022-09-25T22:31:49.931Z,96987.78
2022-09-25T22:34:21.797Z,96986.16
2022-09-25T22:36:56.287Z,96984.69
2022-09-25T22:39:27.134Z,96987.72
2022-09-25T22:41:57.842Z,96990.94
2022-09-25T22:44:26.998Z,96985.59
2022-09-25T22:46:55.311Z,96986.84
2022-09-25T22:49:23.661Z,96986.19
2022-09-25T22:51:51.957Z,96987.22
2022-09-25T22:54:20.579Z,96985.78
2022-09-25T22:56:48.873Z,96986.78
2022-09-25T22:59:18.981Z,96980.81
2022-09-25T23:01:51.199Z,96983.88
2022-09-25T23:04:22.532Z,96983.03
2022-09-25T23:06:51.759Z,96985.72
2022-09-25T23:09:24.794Z,96982.44
2022-09-25T23:11:53.840Z,96986.72
2022-09-25T23:14:26.712Z,96987.75
2022-09-25T23:16:56.186Z,96984.91
2022-09-25T23:19:25.842Z,96987.75
2022-09-25T23:21:55.296Z,96983.22
2022-09-25T23:24:24.756Z,96978.91
2022-09-25T23:26:53.582Z,96974.41
2022-09-25T23:29:23.971Z,96978.06
2022-09-25T23:31:52.914Z,96971.09
2022-09-25T23:34:21.270Z,96977.28
2022-09-25T23:36:49.626Z,96973.56
2022-09-25T23:39:20.478Z,96967.41
2022-09-25T23:41:48.970Z,96968.22
2022-09-25T23:44:17.288Z,96972.75
2022-09-25T23:46:47.059Z,96964.13
2022-09-25T23:49:16.948Z,96966.59
2022-09-25T23:51:46.268Z,96966.59
2022-09-25T23:54:15.030Z,96970.06
2022-09-25T23:56:43.901Z,96964.72
2022-09-25T23:59:13.789Z,96959.56
